createdAt,value
2019-03-15T00:01:34.930Z,32.78
2019-03-15T00:04:03.674Z,19.30
2019-03-15T00:06:32.227Z,26.40
2019-03-15T00:09:00.717Z,14.87
2019-03-15T00:11:29.425Z,20.68
2019-03-15T00:13:58.058Z,19.40
2019-03-15T00:16:26.594Z,16.62
2019-03-15T00:18:55.138Z,12.70
2019-03-15T00:21:23.652Z,21.23
2019-03-15T00:23:52.112Z,16.00
2019-03-15T00:26:20.734Z,13.85
2019-03-15T00:28:49.239Z,15.05
2019-03-15T00:31:17.702Z,14.13
2019-03-15T00:33:46.198Z,14.78
2019-03-15T00:36:14.667Z,18.35
2019-03-15T00:38:43.179Z,21.40
2019-03-15T00:41:11.639Z,13.50
2019-03-15T00:43:40.120Z,10.98
2019-03-15T00:46:08.585Z,14.43
2019-03-15T00:48:37.537Z,18.90
2019-03-15T00:51:06.031Z,11.60
2019-03-15T00:53:34.523Z,16.95
2019-03-15T00:56:03.084Z,13.55
2019-03-15T00:58:31.546Z,14.93
2019-03-15T01:01:00.010Z,11.97
2019-03-15T01:03:28.510Z,9.98
2019-03-15T01:05:56.973Z,11.50
2019-03-15T01:08:25.438Z,10.48
2019-03-15T01:10:53.930Z,7.20
2019-03-15T01:13:22.393Z,12.13
2019-03-15T01:15:50.889Z,13.10
2019-03-15T01:18:19.382Z,12.30
2019-03-15T01:20:47.847Z,14.45
2019-03-15T01:23:16.332Z,7.58
2019-03-15T01:25:44.808Z,10.25
2019-03-15T01:28:13.306Z,11.08
2019-03-15T01:30:41.772Z,14.60
2019-03-15T01:33:10.273Z,11.75
2019-03-15T01:35:38.737Z,14.13
2019-03-15T01:38:07.236Z,17.80
2019-03-15T01:40:35.727Z,16.75
2019-03-15T01:43:04.293Z,12.53
2019-03-15T01:45:33.046Z,14.95
2019-03-15T01:48:01.471Z,14.73
2019-03-15T01:50:29.964Z,12.00
2019-03-15T01:52:58.592Z,20.45
2019-03-15T01:55:27.206Z,11.95
2019-03-15T01:57:55.702Z,11.78
2019-03-15T02:00:24.208Z,15.38
2019-03-15T02:02:52.689Z,15.93
2019-03-15T02:05:21.155Z,13.88
2019-03-15T02:07:49.651Z,15.88
2019-03-15T02:10:18.135Z,19.17
2019-03-15T02:12:47.451Z,18.27
2019-03-15T02:15:16.083Z,13.85
2019-03-15T02:17:44.542Z,13.00
2019-03-15T02:20:13.581Z,24.65
2019-03-15T02:22:42.072Z,13.15
2019-03-15T02:25:10.677Z,21.37
2019-03-15T02:27:39.288Z,15.70
2019-03-15T02:30:10.268Z,13.75
2019-03-15T02:32:39.394Z,19.90
2019-03-15T02:35:08.301Z,12.07
2019-03-15T02:37:36.767Z,20.27
2019-03-15T02:40:06.711Z,30.35
2019-03-15T02:42:35.170Z,23.45
2019-03-15T02:45:03.740Z,63.45
2019-03-15T02:47:32.200Z,36.33
2019-03-15T02:50:01.820Z,24.23
2019-03-15T02:52:30.665Z,23.10
2019-03-15T02:54:59.132Z,15.55
2019-03-15T02:57:27.605Z,14.28
2019-03-15T02:59:56.114Z,22.15
2019-03-15T03:02:24.594Z,17.98
2019-03-15T03:04:53.081Z,18.40
2019-03-15T03:07:21.570Z,10.68
2019-03-15T03:09:50.071Z,9.90
2019-03-15T03:12:18.542Z,10.32
2019-03-15T03:14:47.029Z,9.75
2019-03-15T03:17:15.490Z,11.75
2019-03-15T03:19:43.988Z,18.25
2019-03-15T03:22:12.477Z,15.23
2019-03-15T03:24:40.952Z,10.35
2019-03-15T03:27:09.463Z,11.05
2019-03-15T03:29:37.925Z,10.48
2019-03-15T03:32:06.384Z,11.45
2019-03-15T03:34:35.139Z,13.22
2019-03-15T03:37:04.706Z,6.83
2019-03-15T03:39:34.407Z,12.88
2019-03-15T03:42:03.558Z,25.90
2019-03-15T03:44:32.059Z,29.37
2019-03-15T03:47:00.522Z,26.15
2019-03-15T03:49:28.987Z,19.17
2019-03-15T03:51:57.492Z,16.62
2019-03-15T03:54:26.088Z,16.65
2019-03-15T03:56:54.631Z,15.15
2019-03-15T03:59:23.233Z,15.00
2019-03-15T04:01:51.804Z,25.95
2019-03-15T04:04:20.456Z,48.00
2019-03-15T04:06:48.950Z,50.03
2019-03-15T04:09:17.471Z,46.48
2019-03-15T04:11:55.358Z,56.55
2019-03-15T04:14:16.164Z,31.68
2019-03-15T04:16:44.647Z,30.95
2019-03-15T04:19:13.111Z,32.65
2019-03-15T04:21:41.610Z,43.68
2019-03-15T04:24:10.142Z,27.13
2019-03-15T04:26:38.646Z,14.58
2019-03-15T04:29:07.187Z,14.75
2019-03-15T04:31:35.687Z,20.02
2019-03-15T04:34:04.174Z,42.95
2019-03-15T04:36:32.669Z,26.10
2019-03-15T04:39:01.136Z,24.47
2019-03-15T04:41:29.634Z,44.20
2019-03-15T04:43:58.103Z,28.47
2019-03-15T04:46:26.675Z,44.15
2019-03-15T04:48:55.138Z,36.80
2019-03-15T04:51:23.617Z,30.75
2019-03-15T04:53:52.096Z,28.27
2019-03-15T04:56:20.576Z,35.40
2019-03-15T04:58:49.044Z,29.80
2019-03-15T05:01:17.525Z,26.17
2019-03-15T05:03:45.990Z,33.08
2019-03-15T05:06:14.490Z,21.20
2019-03-15T05:08:42.951Z,25.80
2019-03-15T05:11:11.428Z,82.20
2019-03-15T05:13:40.014Z,39.58
2019-03-15T05:16:08.469Z,92.37
2019-03-15T05:18:36.939Z,115.22
2019-03-15T05:21:05.651Z,27.77
2019-03-15T05:23:34.144Z,60.60
2019-03-15T05:26:02.640Z,42.27
2019-03-15T05:28:31.182Z,49.45
2019-03-15T05:30:59.650Z,54.23
2019-03-15T05:33:28.171Z,39.50
2019-03-15T05:35:56.612Z,68.15
2019-03-15T05:38:25.141Z,75.70
2019-03-15T05:40:54.276Z,48.33
2019-03-15T05:43:22.771Z,41.30
2019-03-15T05:45:51.245Z,50.23
2019-03-15T05:48:19.728Z,64.22
2019-03-15T05:50:48.194Z,38.30
2019-03-15T05:53:16.674Z,87.12
2019-03-15T05:55:45.210Z,98.95
2019-03-15T05:58:13.712Z,101.85
2019-03-15T06:00:42.183Z,46.48
2019-03-15T06:03:12.453Z,79.15
2019-03-15T06:05:40.876Z,77.27
2019-03-15T06:08:09.363Z,89.50
2019-03-15T06:10:37.826Z,58.65
2019-03-15T06:13:06.323Z,63.92
2019-03-15T06:15:34.792Z,41.65
2019-03-15T06:18:06.549Z,100.27
2019-03-15T06:20:33.464Z,52.50
2019-03-15T06:23:01.964Z,61.98
2019-03-15T06:25:30.432Z,65.65
2019-03-15T06:27:59.090Z,93.03
2019-03-15T06:30:27.520Z,74.05
2019-03-15T06:32:56.028Z,175.20
2019-03-15T06:35:24.575Z,74.25
2019-03-15T06:37:53.044Z,78.67
2019-03-15T06:40:21.655Z,82.00
2019-03-15T06:42:50.291Z,79.05
2019-03-15T06:45:18.823Z,62.67
2019-03-15T06:47:47.290Z,64.65
2019-03-15T06:50:15.836Z,79.95
2019-03-15T06:52:44.333Z,61.60
2019-03-15T06:55:13.007Z,65.40
2019-03-15T06:57:41.510Z,72.92
2019-03-15T07:00:15.525Z,68.83
2019-03-15T07:02:44.273Z,72.50
2019-03-15T07:05:13.036Z,95.87
2019-03-15T07:07:41.607Z,65.12
2019-03-15T07:10:11.323Z,93.85
2019-03-15T07:12:40.507Z,51.92
2019-03-15T07:15:11.757Z,92.78
2019-03-15T07:17:40.239Z,75.40
2019-03-15T07:20:16.742Z,73.12
2019-03-15T07:22:45.271Z,68.57
2019-03-15T07:25:13.895Z,61.88
2019-03-15T07:27:43.180Z,80.15
2019-03-15T07:30:13.583Z,109.87
2019-03-15T07:32:42.131Z,83.25
2019-03-15T07:35:10.744Z,213.92
2019-03-15T07:37:39.245Z,109.07
2019-03-15T07:40:12.763Z,95.42
2019-03-15T07:42:41.383Z,83.30
2019-03-15T07:45:14.026Z,90.38
2019-03-15T07:47:42.526Z,99.50
2019-03-15T07:50:17.480Z,90.67
2019-03-15T07:52:46.131Z,104.32
2019-03-15T07:55:14.595Z,74.82
2019-03-15T07:57:43.236Z,98.90
2019-03-15T08:00:14.699Z,110.78
2019-03-15T08:02:43.384Z,81.20
2019-03-15T08:05:12.030Z,34.75
2019-03-15T08:07:45.361Z,50.12
2019-03-15T08:10:12.254Z,47.40
2019-03-15T08:12:40.793Z,35.15
2019-03-15T08:15:10.929Z,42.95
2019-03-15T08:17:39.394Z,60.08
2019-03-15T08:20:10.749Z,55.38
2019-03-15T08:22:39.220Z,26.80
2019-03-15T08:25:09.930Z,40.58
2019-03-15T08:27:38.435Z,52.67
2019-03-15T08:30:14.994Z,40.10
2019-03-15T08:32:44.179Z,28.90
2019-03-15T08:35:13.273Z,58.05
2019-03-15T08:37:41.805Z,40.08
2019-03-15T08:40:12.664Z,39.38
2019-03-15T08:42:41.430Z,39.80
2019-03-15T08:45:17.992Z,50.60
2019-03-15T08:47:46.518Z,20.10
2019-03-15T08:50:16.395Z,58.65
2019-03-15T08:52:44.931Z,56.15
2019-03-15T08:55:14.237Z,87.50
2019-03-15T08:57:42.806Z,99.80
2019-03-15T09:00:17.252Z,112.47
2019-03-15T09:02:47.117Z,78.22
2019-03-15T09:05:16.474Z,102.53
2019-03-15T09:07:45.029Z,41.35
2019-03-15T09:10:22.694Z,80.17
2019-03-15T09:12:44.845Z,78.12
2019-03-15T09:15:14.330Z,74.45
2019-03-15T09:17:42.792Z,61.23
2019-03-15T09:20:13.135Z,87.72
2019-03-15T09:22:41.602Z,89.83
2019-03-15T09:25:20.855Z,86.17
2019-03-15T09:27:47.147Z,54.48
2019-03-15T09:30:24.497Z,66.12
2019-03-15T09:32:46.924Z,58.05
2019-03-15T09:35:15.680Z,112.70
2019-03-15T09:37:47.670Z,65.25
2019-03-15T09:42:44.461Z,52.13
2019-03-15T09:45:17.101Z,46.58
2019-03-15T09:47:45.810Z,51.05
2019-03-15T09:50:26.602Z,53.65
2019-03-15T09:52:46.649Z,39.05
2019-03-15T09:55:15.484Z,59.10
2019-03-15T09:57:44.155Z,52.30
2019-03-15T10:00:16.829Z,34.25
2019-03-15T10:02:45.354Z,38.00
2019-03-15T10:05:14.125Z,31.60
2019-03-15T10:07:44.147Z,31.62
2019-03-15T10:10:20.347Z,30.62
2019-03-15T10:12:48.891Z,88.25
2019-03-15T10:15:18.104Z,70.28
2019-03-15T10:17:46.865Z,46.53
2019-03-15T10:20:16.067Z,37.40
2019-03-15T10:22:44.611Z,47.48
2019-03-15T10:25:14.618Z,72.45
2019-03-15T10:27:43.132Z,43.83
2019-03-15T10:30:13.832Z,41.60
2019-03-15T10:32:42.465Z,48.28
2019-03-15T10:35:11.015Z,34.92
2019-03-15T10:37:39.517Z,42.17
2019-03-15T10:40:13.820Z,74.92
2019-03-15T10:42:42.290Z,79.10
2019-03-15T10:45:11.131Z,81.42
2019-03-15T10:47:42.134Z,49.18
2019-03-15T10:50:12.735Z,59.05
2019-03-15T10:52:41.278Z,144.87
2019-03-15T10:55:10.307Z,105.27
2019-03-15T10:57:39.434Z,88.58
2019-03-15T11:00:19.477Z,114.82
2019-03-15T11:02:48.112Z,48.13
2019-03-15T11:05:16.653Z,42.27
2019-03-15T11:07:45.270Z,40.95
2019-03-15T11:10:14.564Z,29.95
2019-03-15T11:12:43.318Z,25.88
2019-03-15T11:15:15.605Z,25.85
2019-03-15T11:17:45.163Z,50.05
2019-03-15T11:20:14.079Z,52.55
2019-03-15T11:22:42.653Z,40.92
2019-03-15T11:25:12.257Z,40.38
2019-03-15T11:27:40.825Z,44.80
2019-03-15T11:30:15.516Z,86.08
2019-03-15T11:32:44.049Z,55.75
2019-03-15T11:35:13.099Z,39.05
2019-03-15T11:37:41.629Z,55.75
2019-03-15T11:40:14.110Z,40.80
2019-03-15T11:42:42.749Z,75.37
2019-03-15T11:45:12.319Z,56.35
2019-03-15T11:48:01.182Z,33.63
2019-03-15T11:50:13.393Z,38.17
2019-03-15T11:52:41.970Z,58.10
2019-03-15T11:55:10.813Z,63.45
2019-03-15T11:57:39.276Z,60.98
2019-03-15T12:00:13.130Z,72.17
2019-03-15T12:02:41.598Z,46.73
2019-03-15T12:05:10.343Z,65.35
2019-03-15T12:07:38.879Z,80.65
2019-03-15T12:10:10.372Z,60.45
2019-03-15T12:12:38.877Z,60.70
2019-03-15T12:15:10.182Z,37.38
2019-03-15T12:17:38.767Z,28.38
2019-03-15T12:20:10.211Z,32.05
2019-03-15T12:22:38.782Z,50.25
2019-03-15T12:25:10.296Z,28.73
2019-03-15T12:27:38.761Z,47.98
2019-03-15T12:30:12.348Z,49.77
2019-03-15T12:32:40.829Z,118.17
2019-03-15T12:35:11.236Z,56.15
2019-03-15T12:37:39.738Z,115.35
2019-03-15T12:40:13.351Z,48.85
2019-03-15T15:13:38.880Z,43.42
2019-03-15T15:16:07.414Z,35.65
2019-03-15T15:18:35.984Z,46.15
2019-03-15T15:21:06.334Z,31.25
2019-03-15T15:23:34.988Z,60.67
2019-03-15T15:26:03.954Z,35.28
2019-03-15T15:28:32.500Z,53.33
2019-03-15T15:31:00.972Z,35.20
2019-03-15T15:33:29.455Z,34.33
2019-03-15T15:35:57.955Z,26.75
2019-03-15T15:38:26.435Z,19.82
2019-03-15T15:40:55.183Z,27.87
2019-03-15T15:43:23.651Z,32.75
2019-03-15T15:45:52.215Z,40.10
2019-03-15T15:48:20.682Z,37.65
2019-03-15T15:50:49.272Z,35.70
2019-03-15T15:53:17.738Z,38.05
2019-03-15T15:55:46.238Z,39.27
2019-03-15T15:58:18.150Z,61.30
2019-03-15T16:00:44.938Z,76.70
2019-03-15T16:03:13.420Z,90.10
2019-03-15T16:05:41.899Z,51.23
2019-03-15T16:08:10.368Z,81.28
2019-03-15T16:10:38.922Z,73.20
2019-03-15T16:13:16.509Z,76.62
2019-03-15T16:15:37.932Z,102.60
2019-03-15T16:18:07.988Z,91.35
2019-03-15T16:20:36.492Z,136.77
2019-03-15T16:23:06.264Z,183.85
2019-03-15T16:25:34.553Z,150.80
2019-03-15T16:28:03.116Z,118.57
2019-03-15T16:30:31.643Z,128.15
2019-03-15T16:33:00.140Z,107.80
2019-03-15T16:35:28.654Z,175.72
2019-03-15T16:37:57.989Z,90.07
2019-03-15T16:40:27.551Z,92.57
2019-03-15T16:42:56.054Z,137.00
2019-03-15T16:45:31.845Z,207.98
2019-03-15T16:48:00.388Z,226.50
2019-03-15T16:50:28.948Z,150.20
2019-03-15T16:52:57.438Z,192.92
2019-03-15T16:55:26.887Z,125.78
2019-03-15T16:57:55.387Z,129.42
2019-03-15T17:00:25.928Z,120.70
2019-03-15T17:02:54.390Z,96.45
2019-03-15T17:05:22.890Z,114.17
2019-03-15T17:07:51.401Z,102.95
2019-03-15T17:10:20.306Z,118.60
2019-03-15T17:12:48.876Z,92.80
2019-03-15T17:15:26.839Z,128.72
2019-03-15T17:17:56.407Z,102.50
2019-03-15T17:20:24.938Z,138.92
2019-03-15T17:22:53.427Z,146.93
2019-03-15T17:25:21.898Z,106.52
2019-03-15T17:27:50.505Z,133.72
2019-03-15T17:30:19.426Z,138.18
2019-03-15T17:32:48.089Z,103.70
2019-03-15T17:35:18.971Z,119.65
2019-03-15T17:37:47.495Z,138.00
2019-03-15T17:40:17.697Z,96.32
2019-03-15T17:42:47.119Z,81.42
2019-03-15T17:45:15.733Z,102.55
2019-03-15T17:47:45.903Z,125.78
2019-03-15T17:50:19.569Z,71.97
2019-03-15T17:52:48.138Z,91.02
2019-03-15T17:55:17.587Z,160.90
2019-03-15T17:57:46.347Z,87.97
2019-03-15T18:00:19.585Z,143.20
2019-03-15T18:02:48.129Z,90.35
2019-03-15T18:05:16.645Z,111.65
2019-03-15T18:07:45.296Z,75.32
2019-03-15T18:10:14.727Z,78.50
2019-03-15T18:12:43.267Z,63.95
2019-03-15T18:15:11.827Z,94.45
2019-03-15T18:17:40.320Z,74.22
2019-03-15T18:20:09.741Z,101.78
2019-03-15T18:22:38.558Z,78.35
2019-03-15T18:25:08.893Z,71.20
2019-03-15T18:27:37.433Z,65.92
2019-03-15T18:30:12.152Z,183.60
2019-03-15T18:32:40.628Z,69.65
2019-03-15T18:35:10.237Z,82.80
2019-03-15T18:37:38.952Z,47.95
2019-03-15T18:40:18.900Z,98.62
2019-03-15T18:42:47.445Z,57.00
2019-03-15T18:45:18.018Z,72.95
2019-03-15T18:47:46.584Z,49.88
2019-03-15T18:50:25.322Z,65.20
2019-03-15T18:52:54.142Z,63.52
2019-03-15T18:55:22.754Z,37.95
2019-03-15T18:57:51.270Z,49.65
2019-03-15T19:00:26.927Z,62.48
2019-03-15T19:02:55.869Z,167.98
2019-03-15T19:05:24.333Z,135.35
2019-03-15T19:07:52.971Z,133.50
2019-03-15T19:10:21.554Z,170.87
2019-03-15T19:12:50.221Z,88.00
2019-03-15T19:15:22.319Z,105.05
2019-03-15T19:17:51.064Z,84.32
2019-03-15T19:20:19.810Z,73.50
2019-03-15T19:22:48.363Z,89.22
2019-03-15T19:25:16.981Z,43.10
2019-03-15T19:27:45.611Z,98.78
2019-03-15T19:30:18.577Z,35.43
2019-03-15T19:32:47.114Z,31.55
2019-03-15T19:35:15.715Z,32.08
2019-03-15T19:37:46.549Z,56.30
2019-03-15T19:40:19.135Z,40.33
2019-03-15T19:42:47.701Z,45.17
2019-03-15T19:45:17.036Z,22.80
2019-03-15T19:47:46.454Z,44.10
2019-03-15T19:50:17.036Z,61.98
2019-03-15T19:52:47.385Z,127.82
2019-03-15T19:55:16.690Z,53.98
2019-03-15T19:57:45.177Z,43.90
2019-03-15T20:00:21.484Z,68.35
2019-03-15T20:02:51.020Z,61.85
2019-03-15T20:05:19.495Z,71.50
2019-03-15T20:07:48.393Z,629.12
2019-03-15T20:10:17.571Z,392.82
2019-03-15T20:12:48.125Z,224.55
2019-03-15T20:15:17.576Z,245.63
2019-03-15T20:17:46.154Z,207.05
2019-03-15T20:20:18.417Z,159.20
2019-03-15T20:22:46.912Z,120.37
2019-03-15T20:25:16.349Z,85.62
2019-03-15T20:27:44.904Z,84.65
2019-03-15T20:30:21.977Z,62.78
2019-03-15T20:32:48.087Z,33.60
2019-03-15T20:35:16.556Z,87.42
2019-03-15T20:37:46.551Z,55.50
2019-03-15T20:40:15.296Z,26.35
2019-03-15T20:42:43.857Z,92.75
2019-03-15T20:45:17.563Z,51.23
2019-03-15T20:47:46.177Z,38.13
2019-03-15T20:50:14.732Z,50.58
2019-03-15T20:52:43.210Z,42.75
2019-03-15T20:55:11.689Z,42.67
2019-03-15T20:57:40.253Z,30.57
2019-03-15T21:00:13.969Z,69.25
2019-03-15T21:02:43.745Z,87.80
2019-03-15T21:05:12.677Z,97.15
2019-03-15T21:07:43.508Z,46.85
2019-03-15T21:10:16.484Z,68.28
2019-03-15T21:12:45.060Z,45.45
2019-03-15T21:15:14.667Z,56.63
2019-03-15T21:17:43.257Z,72.62
2019-03-15T21:20:14.445Z,76.90
2019-03-15T21:22:44.907Z,82.90
2019-03-15T21:25:13.476Z,81.90
2019-03-15T21:27:53.031Z,59.27
2019-03-15T21:30:17.078Z,42.38
2019-03-15T21:32:45.547Z,53.58
2019-03-15T21:35:14.018Z,52.85
2019-03-15T21:37:42.524Z,60.50
2019-03-15T21:40:14.887Z,47.80
2019-03-15T21:42:43.507Z,81.55
2019-03-15T21:45:12.986Z,49.03
2019-03-15T21:47:41.451Z,65.17
2019-03-15T21:50:18.843Z,41.83
2019-03-15T21:52:47.339Z,49.45
2019-03-15T21:55:16.087Z,61.92
2019-03-15T21:57:46.190Z,47.75
2019-03-15T22:00:21.523Z,37.28
2019-03-15T22:02:49.999Z,49.13
2019-03-15T22:05:18.541Z,46.85
2019-03-15T22:07:47.012Z,47.50
2019-03-15T22:10:16.654Z,43.87
2019-03-15T22:12:49.224Z,59.85
2019-03-15T22:15:17.786Z,64.92
2019-03-15T22:17:46.383Z,48.25
2019-03-15T22:20:16.320Z,53.17
2019-03-15T22:22:44.958Z,46.35
2019-03-15T22:25:13.639Z,59.30
2019-03-15T22:27:42.276Z,62.78
2019-03-15T22:30:14.670Z,70.65
2019-03-15T22:32:43.151Z,105.27
2019-03-15T22:35:12.025Z,77.60
2019-03-15T22:37:42.006Z,96.75
2019-03-15T22:40:11.917Z,108.40
2019-03-15T22:42:40.397Z,70.28
2019-03-15T22:45:10.509Z,102.78
2019-03-15T22:47:39.006Z,83.33
2019-03-15T22:50:11.578Z,108.05
2019-03-15T22:52:40.066Z,177.68
2019-03-15T22:55:09.972Z,181.90
2019-03-15T22:57:38.527Z,73.72
2019-03-15T23:00:10.042Z,75.20
2019-03-15T23:02:38.626Z,73.35
2019-03-15T23:05:07.247Z,81.85
2019-03-15T23:07:35.724Z,89.25
2019-03-15T23:10:05.294Z,42.23
2019-03-15T23:12:33.759Z,34.18
2019-03-15T23:15:02.234Z,37.48
2019-03-15T23:17:30.806Z,32.95
2019-03-15T23:19:59.283Z,47.55
2019-03-15T23:22:27.773Z,360.63
2019-03-15T23:24:56.238Z,148.53
2019-03-15T23:27:26.407Z,39.20
2019-03-15T23:29:54.877Z,66.85
2019-03-15T23:32:24.431Z,72.15
2019-03-15T23:34:53.107Z,115.10
2019-03-15T23:37:21.575Z,51.10
2019-03-15T23:39:50.076Z,32.38
2019-03-15T23:42:18.557Z,6.60
2019-03-15T23:44:47.046Z,15.23
2019-03-15T23:47:15.605Z,17.92
2019-03-15T23:49:44.071Z,22.45
2019-03-15T23:52:12.568Z,31.55
2019-03-15T23:54:42.054Z,23.92
2019-03-15T23:57:10.510Z,14.85
2019-03-15T23:59:38.986Z,15.35
